sensor_id;sensor_type;location;lat;lon;timestamp;P1;durP1;ratioP1;P2;durP2;ratioP2
33188;SDS011;52601;53.070;10.600;2023-07-31T00:01:12;3.42;;;1.15;;
33188;SDS011;52601;53.070;10.600;2023-07-31T00:03:58;2.38;;;1.10;;
33188;SDS011;52601;53.070;10.600;2023-07-31T00:06:44;4.53;;;1.50;;
33188;SDS011;52601;53.070;10.600;2023-07-31T00:09:29;6.35;;;1.23;;
33188;SDS011;52601;53.070;10.600;2023-07-31T00:12:15;5.35;;;1.48;;
33188;SDS011;52601;53.070;10.600;2023-07-31T00:15:00;4.03;;;1.63;;
33188;SDS011;52601;53.070;10.600;2023-07-31T00:17:46;4.73;;;1.47;;
33188;SDS011;52601;53.070;10.600;2023-07-31T00:20:32;2.45;;;1.33;;
33188;SDS011;52601;53.070;10.600;2023-07-31T00:23:18;4.38;;;1.33;;
33188;SDS011;52601;53.070;10.600;2023-07-31T00:26:03;3.05;;;1.35;;
33188;SDS011;52601;53.070;10.600;2023-07-31T00:28:49;7.07;;;1.35;;
33188;SDS011;52601;53.070;10.600;2023-07-31T00:31:34;4.57;;;1.45;;
33188;SDS011;52601;53.070;10.600;2023-07-31T00:34:20;1.85;;;1.27;;
33188;SDS011;52601;53.070;10.600;2023-07-31T00:37:05;3.93;;;1.50;;
33188;SDS011;52601;53.070;10.600;2023-07-31T00:39:51;2.72;;;1.40;;
33188;SDS011;52601;53.070;10.600;2023-07-31T00:42:37;3.45;;;1.77;;
33188;SDS011;52601;53.070;10.600;2023-07-31T00:45:23;5.00;;;1.90;;
33188;SDS011;52601;53.070;10.600;2023-07-31T00:48:09;1.95;;;1.33;;
33188;SDS011;52601;53.070;10.600;2023-07-31T00:50:54;3.20;;;1.60;;
33188;SDS011;52601;53.070;10.600;2023-07-31T00:53:40;4.55;;;1.50;;
33188;SDS011;52601;53.070;10.600;2023-07-31T00:56:28;3.20;;;1.67;;
33188;SDS011;52601;53.070;10.600;2023-07-31T00:59:14;4.70;;;1.65;;
33188;SDS011;52601;53.070;10.600;2023-07-31T01:02:00;2.85;;;1.60;;
33188;SDS011;52601;53.070;10.600;2023-07-31T01:04:45;4.32;;;1.80;;
33188;SDS011;52601;53.070;10.600;2023-07-31T01:07:45;6.00;;;1.52;;
33188;SDS011;52601;53.070;10.600;2023-07-31T01:10:51;6.32;;;1.83;;
33188;SDS011;52601;53.070;10.600;2023-07-31T01:13:47;3.97;;;1.80;;
33188;SDS011;52601;53.070;10.600;2023-07-31T01:16:33;4.23;;;1.53;;
33188;SDS011;52601;53.070;10.600;2023-07-31T01:19:21;3.95;;;1.58;;
33188;SDS011;52601;53.070;10.600;2023-07-31T01:22:14;4.73;;;1.57;;
33188;SDS011;52601;53.070;10.600;2023-07-31T01:28:31;3.42;;;1.70;;
33188;SDS011;52601;53.070;10.600;2023-07-31T01:31:24;2.72;;;1.65;;
33188;SDS011;52601;53.070;10.600;2023-07-31T01:34:11;6.43;;;2.00;;
33188;SDS011;52601;53.070;10.600;2023-07-31T01:36:57;5.13;;;2.00;;
33188;SDS011;52601;53.070;10.600;2023-07-31T01:39:43;5.40;;;1.60;;
33188;SDS011;52601;53.070;10.600;2023-07-31T01:42:29;4.88;;;2.05;;
33188;SDS011;52601;53.070;10.600;2023-07-31T01:45:14;4.65;;;1.67;;
33188;SDS011;52601;53.070;10.600;2023-07-31T01:48:00;4.03;;;1.80;;
33188;SDS011;52601;53.070;10.600;2023-07-31T01:50:46;6.78;;;2.00;;
33188;SDS011;52601;53.070;10.600;2023-07-31T01:53:31;3.50;;;1.63;;
33188;SDS011;52601;53.070;10.600;2023-07-31T01:56:17;4.10;;;2.00;;
33188;SDS011;52601;53.070;10.600;2023-07-31T01:59:02;6.05;;;2.13;;
33188;SDS011;52601;53.070;10.600;2023-07-31T02:01:48;5.47;;;2.17;;
33188;SDS011;52601;53.070;10.600;2023-07-31T02:04:34;4.78;;;2.50;;
33188;SDS011;52601;53.070;10.600;2023-07-31T02:07:19;7.13;;;2.08;;
33188;SDS011;52601;53.070;10.600;2023-07-31T02:10:05;4.43;;;2.33;;
33188;SDS011;52601;53.070;10.600;2023-07-31T02:12:51;4.30;;;2.38;;
33188;SDS011;52601;53.070;10.600;2023-07-31T02:15:37;3.63;;;2.10;;
33188;SDS011;52601;53.070;10.600;2023-07-31T02:18:22;4.93;;;2.42;;
33188;SDS011;52601;53.070;10.600;2023-07-31T02:21:08;5.45;;;2.33;;
33188;SDS011;52601;53.070;10.600;2023-07-31T02:23:54;2.55;;;2.17;;
33188;SDS011;52601;53.070;10.600;2023-07-31T02:26:39;5.72;;;2.28;;
33188;SDS011;52601;53.070;10.600;2023-07-31T02:29:25;5.13;;;2.50;;
33188;SDS011;52601;53.070;10.600;2023-07-31T02:32:11;5.55;;;2.85;;
33188;SDS011;52601;53.070;10.600;2023-07-31T02:34:57;7.82;;;2.67;;
33188;SDS011;52601;53.070;10.600;2023-07-31T02:37:42;4.78;;;2.80;;
33188;SDS011;52601;53.070;10.600;2023-07-31T02:40:28;6.07;;;2.85;;
33188;SDS011;52601;53.070;10.600;2023-07-31T02:43:13;4.72;;;2.63;;
33188;SDS011;52601;53.070;10.600;2023-07-31T02:45:59;5.25;;;2.53;;
33188;SDS011;52601;53.070;10.600;2023-07-31T02:48:44;4.45;;;2.75;;
33188;SDS011;52601;53.070;10.600;2023-07-31T02:51:30;5.05;;;2.67;;
33188;SDS011;52601;53.070;10.600;2023-07-31T02:54:16;6.13;;;2.55;;
33188;SDS011;52601;53.070;10.600;2023-07-31T02:57:01;3.72;;;2.58;;
33188;SDS011;52601;53.070;10.600;2023-07-31T02:59:47;7.18;;;2.90;;
33188;SDS011;52601;53.070;10.600;2023-07-31T03:02:32;6.32;;;2.97;;
33188;SDS011;52601;53.070;10.600;2023-07-31T03:05:18;4.30;;;2.43;;
33188;SDS011;52601;53.070;10.600;2023-07-31T03:08:03;4.82;;;2.50;;
33188;SDS011;52601;53.070;10.600;2023-07-31T03:10:49;5.70;;;2.20;;
33188;SDS011;52601;53.070;10.600;2023-07-31T03:13:34;4.28;;;2.55;;
33188;SDS011;52601;53.070;10.600;2023-07-31T03:16:20;3.33;;;2.40;;
33188;SDS011;52601;53.070;10.600;2023-07-31T03:19:06;5.35;;;2.50;;
33188;SDS011;52601;53.070;10.600;2023-07-31T03:21:51;3.10;;;2.50;;
33188;SDS011;52601;53.070;10.600;2023-07-31T03:24:37;4.35;;;2.33;;
33188;SDS011;52601;53.070;10.600;2023-07-31T03:27:22;3.87;;;2.20;;
33188;SDS011;52601;53.070;10.600;2023-07-31T03:30:08;5.88;;;2.70;;
33188;SDS011;52601;53.070;10.600;2023-07-31T03:32:53;3.30;;;2.30;;
33188;SDS011;52601;53.070;10.600;2023-07-31T03:35:39;6.45;;;2.50;;
33188;SDS011;52601;53.070;10.600;2023-07-31T03:38:24;3.78;;;2.08;;
33188;SDS011;52601;53.070;10.600;2023-07-31T03:41:10;5.05;;;2.60;;
33188;SDS011;52601;53.070;10.600;2023-07-31T03:43:56;4.63;;;2.40;;
33188;SDS011;52601;53.070;10.600;2023-07-31T03:46:41;5.68;;;2.38;;
33188;SDS011;52601;53.070;10.600;2023-07-31T03:49:27;3.83;;;2.10;;
33188;SDS011;52601;53.070;10.600;2023-07-31T03:52:13;3.70;;;2.30;;
33188;SDS011;52601;53.070;10.600;2023-07-31T03:54:58;3.88;;;2.38;;
33188;SDS011;52601;53.070;10.600;2023-07-31T03:57:44;4.22;;;2.13;;
33188;SDS011;52601;53.070;10.600;2023-07-31T04:00:30;3.20;;;2.40;;
33188;SDS011;52601;53.070;10.600;2023-07-31T04:03:16;5.30;;;1.92;;
33188;SDS011;52601;53.070;10.600;2023-07-31T04:06:01;3.88;;;2.03;;
33188;SDS011;52601;53.070;10.600;2023-07-31T04:08:47;4.32;;;2.30;;
33188;SDS011;52601;53.070;10.600;2023-07-31T04:11:33;4.93;;;2.40;;
33188;SDS011;52601;53.070;10.600;2023-07-31T04:14:19;3.23;;;2.40;;
33188;SDS011;52601;53.070;10.600;2023-07-31T04:17:05;3.85;;;2.20;;
33188;SDS011;52601;53.070;10.600;2023-07-31T04:19:50;5.25;;;2.40;;
33188;SDS011;52601;53.070;10.600;2023-07-31T04:22:36;4.47;;;2.70;;
33188;SDS011;52601;53.070;10.600;2023-07-31T04:25:21;3.03;;;2.30;;
33188;SDS011;52601;53.070;10.600;2023-07-31T04:28:07;5.13;;;2.40;;
33188;SDS011;52601;53.070;10.600;2023-07-31T04:30:52;5.07;;;2.40;;
33188;SDS011;52601;53.070;10.600;2023-07-31T04:33:38;5.18;;;2.45;;
33188;SDS011;52601;53.070;10.600;2023-07-31T04:36:24;4.72;;;2.47;;
33188;SDS011;52601;53.070;10.600;2023-07-31T04:39:09;14.15;;;2.95;;
33188;SDS011;52601;53.070;10.600;2023-07-31T04:41:55;3.95;;;2.42;;
33188;SDS011;52601;53.070;10.600;2023-07-31T04:44:40;5.63;;;2.88;;
33188;SDS011;52601;53.070;10.600;2023-07-31T04:47:26;3.28;;;2.35;;
33188;SDS011;52601;53.070;10.600;2023-07-31T04:50:12;3.95;;;2.35;;
33188;SDS011;52601;53.070;10.600;2023-07-31T04:52:57;5.32;;;2.30;;
33188;SDS011;52601;53.070;10.600;2023-07-31T04:55:43;5.00;;;2.58;;
33188;SDS011;52601;53.070;10.600;2023-07-31T04:58:29;5.30;;;2.55;;
33188;SDS011;52601;53.070;10.600;2023-07-31T05:01:15;4.07;;;2.20;;
33188;SDS011;52601;53.070;10.600;2023-07-31T05:04:01;10.23;;;2.72;;
33188;SDS011;52601;53.070;10.600;2023-07-31T05:06:46;4.10;;;2.22;;
33188;SDS011;52601;53.070;10.600;2023-07-31T05:09:32;4.50;;;2.38;;
33188;SDS011;52601;53.070;10.600;2023-07-31T05:12:17;6.00;;;2.22;;
33188;SDS011;52601;53.070;10.600;2023-07-31T05:15:03;4.63;;;2.40;;
33188;SDS011;52601;53.070;10.600;2023-07-31T05:17:49;6.03;;;2.37;;
33188;SDS011;52601;53.070;10.600;2023-07-31T05:20:35;6.97;;;2.30;;
33188;SDS011;52601;53.070;10.600;2023-07-31T05:23:20;4.00;;;2.17;;
33188;SDS011;52601;53.070;10.600;2023-07-31T05:26:06;5.40;;;1.98;;
33188;SDS011;52601;53.070;10.600;2023-07-31T05:28:52;3.72;;;1.65;;
33188;SDS011;52601;53.070;10.600;2023-07-31T05:31:38;6.15;;;2.28;;
33188;SDS011;52601;53.070;10.600;2023-07-31T05:34:24;4.57;;;1.90;;
33188;SDS011;52601;53.070;10.600;2023-07-31T05:37:10;2.38;;;1.67;;
33188;SDS011;52601;53.070;10.600;2023-07-31T05:39:56;4.00;;;1.58;;
33188;SDS011;52601;53.070;10.600;2023-07-31T05:42:42;2.30;;;1.60;;
33188;SDS011;52601;53.070;10.600;2023-07-31T05:45:27;2.13;;;1.40;;
33188;SDS011;52601;53.070;10.600;2023-07-31T05:48:12;3.42;;;1.80;;
33188;SDS011;52601;53.070;10.600;2023-07-31T05:50:58;4.97;;;1.70;;
33188;SDS011;52601;53.070;10.600;2023-07-31T05:53:44;3.60;;;1.60;;
33188;SDS011;52601;53.070;10.600;2023-07-31T05:56:30;3.78;;;1.63;;
33188;SDS011;52601;53.070;10.600;2023-07-31T05:59:16;3.15;;;1.55;;
33188;SDS011;52601;53.070;10.600;2023-07-31T06:02:01;3.08;;;1.30;;
33188;SDS011;52601;53.070;10.600;2023-07-31T06:04:47;2.95;;;1.98;;
33188;SDS011;52601;53.070;10.600;2023-07-31T06:07:33;3.10;;;1.87;;
33188;SDS011;52601;53.070;10.600;2023-07-31T06:10:18;2.35;;;1.60;;
33188;SDS011;52601;53.070;10.600;2023-07-31T06:13:04;1.60;;;1.30;;
33188;SDS011;52601;53.070;10.600;2023-07-31T06:15:50;1.95;;;1.42;;
33188;SDS011;52601;53.070;10.600;2023-07-31T06:18:36;1.75;;;1.13;;
33188;SDS011;52601;53.070;10.600;2023-07-31T06:21:21;3.13;;;1.30;;
33188;SDS011;52601;53.070;10.600;2023-07-31T06:24:08;2.38;;;1.52;;
33188;SDS011;52601;53.070;10.600;2023-07-31T06:26:53;1.67;;;1.00;;
33188;SDS011;52601;53.070;10.600;2023-07-31T06:29:39;2.95;;;1.20;;
33188;SDS011;52601;53.070;10.600;2023-07-31T06:32:24;1.95;;;0.90;;
33188;SDS011;52601;53.070;10.600;2023-07-31T06:35:10;3.10;;;1.20;;
33188;SDS011;52601;53.070;10.600;2023-07-31T06:37:55;3.85;;;0.90;;
33188;SDS011;52601;53.070;10.600;2023-07-31T06:40:41;5.20;;;1.30;;
33188;SDS011;52601;53.070;10.600;2023-07-31T06:43:27;2.10;;;1.10;;
33188;SDS011;52601;53.070;10.600;2023-07-31T06:46:13;2.05;;;0.95;;
33188;SDS011;52601;53.070;10.600;2023-07-31T06:48:59;1.20;;;0.90;;
33188;SDS011;52601;53.070;10.600;2023-07-31T06:51:45;0.93;;;0.70;;
33188;SDS011;52601;53.070;10.600;2023-07-31T06:54:30;6.10;;;1.63;;
33188;SDS011;52601;53.070;10.600;2023-07-31T06:57:16;2.40;;;0.90;;
33188;SDS011;52601;53.070;10.600;2023-07-31T07:00:02;1.95;;;1.10;;
33188;SDS011;52601;53.070;10.600;2023-07-31T07:02:49;1.10;;;0.95;;
33188;SDS011;52601;53.070;10.600;2023-07-31T07:05:35;1.35;;;0.98;;
33188;SDS011;52601;53.070;10.600;2023-07-31T07:08:21;1.17;;;1.00;;
33188;SDS011;52601;53.070;10.600;2023-07-31T07:11:09;1.50;;;0.80;;
33188;SDS011;52601;53.070;10.600;2023-07-31T07:13:55;1.85;;;0.90;;
33188;SDS011;52601;53.070;10.600;2023-07-31T07:16:40;1.30;;;1.00;;
33188;SDS011;52601;53.070;10.600;2023-07-31T07:19:27;0.93;;;0.85;;
33188;SDS011;52601;53.070;10.600;2023-07-31T07:22:13;1.77;;;1.25;;
33188;SDS011;52601;53.070;10.600;2023-07-31T07:24:59;1.55;;;0.90;;
33188;SDS011;52601;53.070;10.600;2023-07-31T07:27:45;1.10;;;1.00;;
33188;SDS011;52601;53.070;10.600;2023-07-31T07:30:30;0.80;;;0.80;;
33188;SDS011;52601;53.070;10.600;2023-07-31T07:33:16;2.20;;;1.02;;
33188;SDS011;52601;53.070;10.600;2023-07-31T07:36:01;1.75;;;1.10;;
33188;SDS011;52601;53.070;10.600;2023-07-31T07:38:47;1.15;;;0.77;;
33188;SDS011;52601;53.070;10.600;2023-07-31T07:41:33;1.20;;;0.90;;
33188;SDS011;52601;53.070;10.600;2023-07-31T07:44:18;1.42;;;0.70;;
33188;SDS011;52601;53.070;10.600;2023-07-31T07:47:04;2.00;;;0.88;;
33188;SDS011;52601;53.070;10.600;2023-07-31T07:49:53;1.93;;;0.97;;
33188;SDS011;52601;53.070;10.600;2023-07-31T07:52:41;1.73;;;0.70;;
33188;SDS011;52601;53.070;10.600;2023-07-31T07:55:27;1.30;;;0.60;;
33188;SDS011;52601;53.070;10.600;2023-07-31T07:58:13;1.75;;;0.77;;
33188;SDS011;52601;53.070;10.600;2023-07-31T08:00:58;2.20;;;0.77;;
33188;SDS011;52601;53.070;10.600;2023-07-31T08:03:44;0.65;;;0.60;;
33188;SDS011;52601;53.070;10.600;2023-07-31T08:06:29;1.27;;;0.88;;
33188;SDS011;52601;53.070;10.600;2023-07-31T08:09:15;0.70;;;0.60;;
33188;SDS011;52601;53.070;10.600;2023-07-31T08:12:00;0.85;;;0.68;;
33188;SDS011;52601;53.070;10.600;2023-07-31T08:14:48;1.20;;;0.75;;
33188;SDS011;52601;53.070;10.600;2023-07-31T08:17:34;0.70;;;0.65;;
33188;SDS011;52601;53.070;10.600;2023-07-31T08:20:19;0.93;;;0.70;;
33188;SDS011;52601;53.070;10.600;2023-07-31T08:23:05;1.10;;;0.80;;
33188;SDS011;52601;53.070;10.600;2023-07-31T08:25:50;2.17;;;1.25;;
33188;SDS011;52601;53.070;10.600;2023-07-31T08:28:36;1.03;;;0.93;;
33188;SDS011;52601;53.070;10.600;2023-07-31T08:31:22;1.40;;;1.00;;
33188;SDS011;52601;53.070;10.600;2023-07-31T08:34:07;2.30;;;0.90;;
33188;SDS011;52601;53.070;10.600;2023-07-31T08:36:53;1.45;;;0.90;;
33188;SDS011;52601;53.070;10.600;2023-07-31T08:39:39;1.25;;;0.77;;
33188;SDS011;52601;53.070;10.600;2023-07-31T08:42:25;1.80;;;0.75;;
33188;SDS011;52601;53.070;10.600;2023-07-31T08:45:12;0.50;;;0.50;;
33188;SDS011;52601;53.070;10.600;2023-07-31T08:47:59;1.63;;;0.80;;
33188;SDS011;52601;53.070;10.600;2023-07-31T08:50:45;3.70;;;1.00;;
33188;SDS011;52601;53.070;10.600;2023-07-31T08:53:31;0.95;;;0.60;;
33188;SDS011;52601;53.070;10.600;2023-07-31T08:56:16;0.60;;;0.60;;
33188;SDS011;52601;53.070;10.600;2023-07-31T08:59:03;0.88;;;0.60;;
33188;SDS011;52601;53.070;10.600;2023-07-31T09:01:50;2.63;;;0.50;;
33188;SDS011;52601;53.070;10.600;2023-07-31T09:04:39;1.42;;;0.57;;
33188;SDS011;52601;53.070;10.600;2023-07-31T09:07:24;0.82;;;0.68;;
33188;SDS011;52601;53.070;10.600;2023-07-31T09:10:10;0.93;;;0.68;;
33188;SDS011;52601;53.070;10.600;2023-07-31T09:12:56;2.10;;;0.90;;
33188;SDS011;52601;53.070;10.600;2023-07-31T09:15:44;2.08;;;0.90;;
33188;SDS011;52601;53.070;10.600;2023-07-31T09:18:30;2.77;;;1.50;;
33188;SDS011;52601;53.070;10.600;2023-07-31T09:21:16;4.27;;;1.83;;
33188;SDS011;52601;53.070;10.600;2023-07-31T09:24:02;6.10;;;2.30;;
33188;SDS011;52601;53.070;10.600;2023-07-31T09:26:48;3.60;;;2.10;;
33188;SDS011;52601;53.070;10.600;2023-07-31T09:29:40;8.45;;;3.20;;
33188;SDS011;52601;53.070;10.600;2023-07-31T09:32:25;4.93;;;2.67;;
33188;SDS011;52601;53.070;10.600;2023-07-31T09:35:21;6.77;;;3.03;;
33188;SDS011;52601;53.070;10.600;2023-07-31T09:38:11;8.27;;;3.22;;
33188;SDS011;52601;53.070;10.600;2023-07-31T09:40:58;10.15;;;3.58;;
33188;SDS011;52601;53.070;10.600;2023-07-31T09:43:52;5.57;;;3.28;;
33188;SDS011;52601;53.070;10.600;2023-07-31T09:46:39;7.63;;;3.70;;
33188;SDS011;52601;53.070;10.600;2023-07-31T09:49:25;7.32;;;3.78;;
33188;SDS011;52601;53.070;10.600;2023-07-31T09:52:11;10.38;;;4.25;;
33188;SDS011;52601;53.070;10.600;2023-07-31T09:54:59;5.95;;;3.50;;
33188;SDS011;52601;53.070;10.600;2023-07-31T09:57:46;6.63;;;3.63;;
33188;SDS011;52601;53.070;10.600;2023-07-31T10:00:33;8.93;;;4.07;;
33188;SDS011;52601;53.070;10.600;2023-07-31T10:03:19;8.95;;;3.35;;
33188;SDS011;52601;53.070;10.600;2023-07-31T10:06:06;7.95;;;3.70;;
33188;SDS011;52601;53.070;10.600;2023-07-31T10:08:54;9.27;;;3.58;;
33188;SDS011;52601;53.070;10.600;2023-07-31T10:11:42;6.83;;;3.73;;
33188;SDS011;52601;53.070;10.600;2023-07-31T10:14:29;7.43;;;3.60;;
33188;SDS011;52601;53.070;10.600;2023-07-31T10:17:16;7.60;;;3.75;;
33188;SDS011;52601;53.070;10.600;2023-07-31T10:20:04;7.65;;;3.50;;
33188;SDS011;52601;53.070;10.600;2023-07-31T10:22:52;7.00;;;3.83;;
33188;SDS011;52601;53.070;10.600;2023-07-31T10:25:40;7.80;;;3.53;;
33188;SDS011;52601;53.070;10.600;2023-07-31T10:28:27;5.00;;;3.03;;
33188;SDS011;52601;53.070;10.600;2023-07-31T10:31:14;7.97;;;3.72;;
33188;SDS011;52601;53.070;10.600;2023-07-31T10:34:01;8.77;;;3.90;;
33188;SDS011;52601;53.070;10.600;2023-07-31T10:36:48;6.22;;;3.72;;
33188;SDS011;52601;53.070;10.600;2023-07-31T10:39:37;4.63;;;3.17;;
33188;SDS011;52601;53.070;10.600;2023-07-31T10:43:08;7.10;;;3.08;;
33188;SDS011;52601;53.070;10.600;2023-07-31T10:45:35;6.22;;;3.42;;
33188;SDS011;52601;53.070;10.600;2023-07-31T10:48:22;4.93;;;2.90;;
33188;SDS011;52601;53.070;10.600;2023-07-31T10:51:09;7.32;;;3.47;;
33188;SDS011;52601;53.070;10.600;2023-07-31T10:54:09;6.55;;;3.20;;
33188;SDS011;52601;53.070;10.600;2023-07-31T10:56:55;6.53;;;3.30;;
33188;SDS011;52601;53.070;10.600;2023-07-31T10:59:42;3.83;;;2.65;;
33188;SDS011;52601;53.070;10.600;2023-07-31T11:02:27;4.57;;;2.70;;
33188;SDS011;52601;53.070;10.600;2023-07-31T11:05:16;5.65;;;2.88;;
33188;SDS011;52601;53.070;10.600;2023-07-31T11:08:09;6.50;;;2.97;;
33188;SDS011;52601;53.070;10.600;2023-07-31T11:13:50;4.88;;;2.40;;
33188;SDS011;52601;53.070;10.600;2023-07-31T11:16:38;5.47;;;2.80;;
33188;SDS011;52601;53.070;10.600;2023-07-31T11:19:27;4.17;;;2.30;;
33188;SDS011;52601;53.070;10.600;2023-07-31T11:22:12;4.57;;;2.30;;
33188;SDS011;52601;53.070;10.600;2023-07-31T11:24:58;9.43;;;3.13;;
33188;SDS011;52601;53.070;10.600;2023-07-31T11:27:44;4.70;;;2.70;;
33188;SDS011;52601;53.070;10.600;2023-07-31T11:30:30;3.95;;;2.17;;
33188;SDS011;52601;53.070;10.600;2023-07-31T11:33:16;4.72;;;2.35;;
33188;SDS011;52601;53.070;10.600;2023-07-31T11:36:01;5.95;;;2.40;;
33188;SDS011;52601;53.070;10.600;2023-07-31T11:38:47;4.55;;;2.70;;
33188;SDS011;52601;53.070;10.600;2023-07-31T11:41:33;3.72;;;2.28;;
33188;SDS011;52601;53.070;10.600;2023-07-31T11:44:19;3.92;;;2.30;;
33188;SDS011;52601;53.070;10.600;2023-07-31T11:47:12;4.32;;;2.75;;
33188;SDS011;52601;53.070;10.600;2023-07-31T11:49:58;3.70;;;2.00;;
33188;SDS011;52601;53.070;10.600;2023-07-31T11:52:44;5.00;;;1.90;;
33188;SDS011;52601;53.070;10.600;2023-07-31T11:55:32;2.42;;;1.75;;
33188;SDS011;52601;53.070;10.600;2023-07-31T11:58:21;2.35;;;1.60;;
33188;SDS011;52601;53.070;10.600;2023-07-31T12:01:07;2.78;;;1.63;;
33188;SDS011;52601;53.070;10.600;2023-07-31T12:03:53;1.80;;;1.60;;
33188;SDS011;52601;53.070;10.600;2023-07-31T12:06:40;2.60;;;1.63;;
33188;SDS011;52601;53.070;10.600;2023-07-31T12:09:26;2.78;;;1.52;;
33188;SDS011;52601;53.070;10.600;2023-07-31T12:12:12;3.20;;;1.77;;
33188;SDS011;52601;53.070;10.600;2023-07-31T12:15:14;1.83;;;1.33;;
33188;SDS011;52601;53.070;10.600;2023-07-31T12:18:03;3.90;;;1.60;;
33188;SDS011;52601;53.070;10.600;2023-07-31T12:23:40;1.80;;;1.20;;
33188;SDS011;52601;53.070;10.600;2023-07-31T12:26:33;3.88;;;1.35;;
33188;SDS011;52601;53.070;10.600;2023-07-31T12:29:19;2.97;;;1.40;;
33188;SDS011;52601;53.070;10.600;2023-07-31T12:32:17;2.13;;;1.38;;
33188;SDS011;52601;53.070;10.600;2023-07-31T12:35:07;1.60;;;1.38;;
33188;SDS011;52601;53.070;10.600;2023-07-31T12:37:53;3.07;;;1.40;;
33188;SDS011;52601;53.070;10.600;2023-07-31T12:40:39;1.77;;;1.40;;
33188;SDS011;52601;53.070;10.600;2023-07-31T12:43:26;1.48;;;1.15;;
33188;SDS011;52601;53.070;10.600;2023-07-31T12:46:11;1.67;;;1.55;;
33188;SDS011;52601;53.070;10.600;2023-07-31T12:48:57;2.38;;;1.30;;
33188;SDS011;52601;53.070;10.600;2023-07-31T12:51:43;2.30;;;1.50;;
33188;SDS011;52601;53.070;10.600;2023-07-31T12:54:29;3.58;;;1.35;;
33188;SDS011;52601;53.070;10.600;2023-07-31T12:57:14;1.40;;;1.27;;
33188;SDS011;52601;53.070;10.600;2023-07-31T13:00:00;1.30;;;1.20;;
33188;SDS011;52601;53.070;10.600;2023-07-31T13:02:46;1.38;;;1.27;;
33188;SDS011;52601;53.070;10.600;2023-07-31T13:05:31;1.70;;;1.20;;
33188;SDS011;52601;53.070;10.600;2023-07-31T13:08:16;1.73;;;1.10;;
33188;SDS011;52601;53.070;10.600;2023-07-31T13:11:03;1.23;;;0.97;;
33188;SDS011;52601;53.070;10.600;2023-07-31T13:13:48;1.67;;;1.15;;
33188;SDS011;52601;53.070;10.600;2023-07-31T13:16:34;1.92;;;1.30;;
33188;SDS011;52601;53.070;10.600;2023-07-31T13:19:20;2.10;;;1.20;;
33188;SDS011;52601;53.070;10.600;2023-07-31T13:22:05;1.40;;;1.30;;
33188;SDS011;52601;53.070;10.600;2023-07-31T13:24:51;1.88;;;1.20;;
33188;SDS011;52601;53.070;10.600;2023-07-31T13:27:37;2.75;;;1.10;;
33188;SDS011;52601;53.070;10.600;2023-07-31T13:30:23;1.40;;;1.15;;
33188;SDS011;52601;53.070;10.600;2023-07-31T13:33:08;6.10;;;1.17;;
33188;SDS011;52601;53.070;10.600;2023-07-31T13:36:09;8.05;;;1.80;;
33188;SDS011;52601;53.070;10.600;2023-07-31T13:38:56;0.60;;;0.10;;
33188;SDS011;52601;53.070;10.600;2023-07-31T13:41:42;2.05;;;0.90;;
33188;SDS011;52601;53.070;10.600;2023-07-31T13:44:27;1.45;;;0.60;;
33188;SDS011;52601;53.070;10.600;2023-07-31T13:47:12;1.30;;;0.80;;
33188;SDS011;52601;53.070;10.600;2023-07-31T13:49:58;1.10;;;0.60;;
33188;SDS011;52601;53.070;10.600;2023-07-31T13:52:44;7.80;;;1.00;;
33188;SDS011;52601;53.070;10.600;2023-07-31T13:55:29;0.00;;;0.00;;
33188;SDS011;52601;53.070;10.600;2023-07-31T13:58:15;85.78;;;6.07;;
33188;SDS011;52601;53.070;10.600;2023-07-31T14:01:00;0.10;;;0.10;;
33188;SDS011;52601;53.070;10.600;2023-07-31T14:03:46;0.00;;;0.00;;
33188;SDS011;52601;53.070;10.600;2023-07-31T14:06:32;8.27;;;1.08;;
33188;SDS011;52601;53.070;10.600;2023-07-31T14:09:17;1.88;;;0.80;;
33188;SDS011;52601;53.070;10.600;2023-07-31T14:12:03;1.00;;;0.80;;
33188;SDS011;52601;53.070;10.600;2023-07-31T14:14:49;1.60;;;0.63;;
33188;SDS011;52601;53.070;10.600;2023-07-31T14:17:35;1.10;;;0.87;;
33188;SDS011;52601;53.070;10.600;2023-07-31T14:20:21;1.50;;;1.10;;
33188;SDS011;52601;53.070;10.600;2023-07-31T14:23:07;1.60;;;1.20;;
33188;SDS011;52601;53.070;10.600;2023-07-31T14:25:52;10.55;;;1.75;;
33188;SDS011;52601;53.070;10.600;2023-07-31T14:28:38;1.17;;;1.08;;
33188;SDS011;52601;53.070;10.600;2023-07-31T14:31:24;3.28;;;1.60;;
33188;SDS011;52601;53.070;10.600;2023-07-31T14:34:09;2.85;;;1.65;;
33188;SDS011;52601;53.070;10.600;2023-07-31T14:36:55;2.30;;;1.55;;
33188;SDS011;52601;53.070;10.600;2023-07-31T14:39:41;4.93;;;1.50;;
33188;SDS011;52601;53.070;10.600;2023-07-31T14:42:26;2.45;;;1.70;;
33188;SDS011;52601;53.070;10.600;2023-07-31T14:45:11;1.83;;;1.40;;
33188;SDS011;52601;53.070;10.600;2023-07-31T14:47:57;2.58;;;1.30;;
33188;SDS011;52601;53.070;10.600;2023-07-31T14:50:43;1.88;;;1.23;;
33188;SDS011;52601;53.070;10.600;2023-07-31T14:53:28;1.85;;;1.30;;
33188;SDS011;52601;53.070;10.600;2023-07-31T14:56:14;3.00;;;1.30;;
33188;SDS011;52601;53.070;10.600;2023-07-31T14:58:59;1.25;;;1.10;;
33188;SDS011;52601;53.070;10.600;2023-07-31T15:01:45;1.80;;;1.30;;
33188;SDS011;52601;53.070;10.600;2023-07-31T15:04:30;4.47;;;1.60;;
33188;SDS011;52601;53.070;10.600;2023-07-31T15:07:16;3.88;;;1.45;;
33188;SDS011;52601;53.070;10.600;2023-07-31T15:10:02;1.80;;;1.27;;
33188;SDS011;52601;53.070;10.600;2023-07-31T15:12:48;3.30;;;1.65;;
33188;SDS011;52601;53.070;10.600;2023-07-31T15:15:34;1.92;;;1.50;;
33188;SDS011;52601;53.070;10.600;2023-07-31T15:18:19;2.03;;;1.52;;
33188;SDS011;52601;53.070;10.600;2023-07-31T15:21:05;2.60;;;1.60;;
33188;SDS011;52601;53.070;10.600;2023-07-31T15:23:52;3.75;;;1.40;;
33188;SDS011;52601;53.070;10.600;2023-07-31T15:26:38;3.20;;;1.50;;
33188;SDS011;52601;53.070;10.600;2023-07-31T15:29:24;3.17;;;1.40;;
33188;SDS011;52601;53.070;10.600;2023-07-31T15:32:10;3.60;;;1.60;;
33188;SDS011;52601;53.070;10.600;2023-07-31T15:34:55;2.15;;;1.35;;
33188;SDS011;52601;53.070;10.600;2023-07-31T15:37:41;2.60;;;1.40;;
33188;SDS011;52601;53.070;10.600;2023-07-31T15:40:27;1.42;;;1.15;;
33188;SDS011;52601;53.070;10.600;2023-07-31T15:43:12;1.60;;;1.48;;
33188;SDS011;52601;53.070;10.600;2023-07-31T15:45:58;1.80;;;1.30;;
33188;SDS011;52601;53.070;10.600;2023-07-31T15:48:44;1.20;;;1.10;;
33188;SDS011;52601;53.070;10.600;2023-07-31T15:51:30;1.83;;;1.42;;
33188;SDS011;52601;53.070;10.600;2023-07-31T15:54:15;2.17;;;1.30;;
33188;SDS011;52601;53.070;10.600;2023-07-31T15:57:01;2.17;;;1.38;;
33188;SDS011;52601;53.070;10.600;2023-07-31T15:59:47;1.90;;;1.40;;
33188;SDS011;52601;53.070;10.600;2023-07-31T16:02:51;1.65;;;1.30;;
33188;SDS011;52601;53.070;10.600;2023-07-31T16:05:36;2.15;;;1.30;;
33188;SDS011;52601;53.070;10.600;2023-07-31T16:08:22;1.58;;;1.20;;
33188;SDS011;52601;53.070;10.600;2023-07-31T16:11:08;2.00;;;1.40;;
33188;SDS011;52601;53.070;10.600;2023-07-31T16:13:54;2.70;;;1.30;;
33188;SDS011;52601;53.070;10.600;2023-07-31T16:16:40;1.88;;;1.40;;
33188;SDS011;52601;53.070;10.600;2023-07-31T16:19:26;1.90;;;1.50;;
33188;SDS011;52601;53.070;10.600;2023-07-31T16:22:11;4.97;;;1.40;;
33188;SDS011;52601;53.070;10.600;2023-07-31T16:24:57;2.25;;;1.60;;
33188;SDS011;52601;53.070;10.600;2023-07-31T16:27:42;1.83;;;1.15;;
33188;SDS011;52601;53.070;10.600;2023-07-31T16:30:29;1.92;;;1.50;;
33188;SDS011;52601;53.070;10.600;2023-07-31T16:33:15;2.27;;;1.63;;
33188;SDS011;52601;53.070;10.600;2023-07-31T16:36:00;1.70;;;1.40;;